createdAt,value
2023-04-16T00:01:11.112Z,15.60
2023-04-16T00:11:32.796Z,15.60
2023-04-16T00:21:55.522Z,15.60
2023-04-16T00:32:17.239Z,15.50
2023-04-16T00:42:40.478Z,15.40
2023-04-16T00:53:04.196Z,15.50
2023-04-16T01:03:36.543Z,15.40
2023-04-16T01:14:03.156Z,15.50
2023-04-16T01:24:26.304Z,15.40
2023-04-16T01:34:47.736Z,15.40
2023-04-16T01:45:14.119Z,15.50
2023-04-16T01:55:36.165Z,15.50
2023-04-16T02:05:59.234Z,15.50
2023-04-16T02:16:24.123Z,15.50
2023-04-16T02:26:59.023Z,15.50
2023-04-16T02:37:24.038Z,15.60
2023-04-16T02:47:47.468Z,15.60
2023-04-16T02:58:10.646Z,15.60
2023-04-16T03:08:34.156Z,15.50
2023-04-16T03:18:58.182Z,15.50
2023-04-16T03:29:21.393Z,15.40
2023-04-16T03:39:43.517Z,15.50
2023-04-16T03:50:08.602Z,15.30
2023-04-16T04:00:32.744Z,15.10
2023-04-16T04:11:09.567Z,15.10
2023-04-16T04:21:34.047Z,15.10
2023-04-16T04:32:02.042Z,14.90
2023-04-16T04:42:23.814Z,14.90
2023-04-16T04:52:52.531Z,15.00
2023-04-16T05:03:14.527Z,15.00
2023-04-16T05:13:40.259Z,14.90
2023-04-16T05:24:02.009Z,14.90
2023-04-16T05:34:25.028Z,15.00
2023-04-16T05:44:46.536Z,15.00
2023-04-16T05:55:10.666Z,14.90
2023-04-16T06:05:36.889Z,15.00
2023-04-16T06:16:00.254Z,15.10
2023-04-16T06:26:23.199Z,15.00
2023-04-16T06:36:51.115Z,15.00
2023-04-16T06:47:13.056Z,15.00
2023-04-16T06:57:37.374Z,15.30
2023-04-16T07:08:00.337Z,15.30
2023-04-16T07:18:23.912Z,15.30
2023-04-16T07:28:45.227Z,15.20
2023-04-16T07:39:13.812Z,15.50
2023-04-16T07:49:44.207Z,15.40
2023-04-16T08:00:08.899Z,15.60
2023-04-16T08:10:37.559Z,15.60
2023-04-16T08:21:12.834Z,15.60
2023-04-16T08:31:38.640Z,15.40
2023-04-16T08:42:11.928Z,15.50
2023-04-16T08:52:49.268Z,15.50
2023-04-16T09:03:13.832Z,15.70
2023-04-16T09:13:36.202Z,15.60
2023-04-16T09:24:00.941Z,15.50
2023-04-16T09:34:22.477Z,15.40
2023-04-16T09:44:47.966Z,15.90
2023-04-16T09:55:11.960Z,16.20
2023-04-16T10:05:38.025Z,16.20
2023-04-16T10:16:00.049Z,16.60
2023-04-16T10:26:23.536Z,16.60
2023-04-16T10:36:51.801Z,16.30
2023-04-16T10:47:18.877Z,16.40
2023-04-16T10:57:40.874Z,16.10
2023-04-16T11:08:16.033Z,16.40
2023-04-16T11:18:38.296Z,16.50
2023-04-16T11:29:15.727Z,16.60
2023-04-16T11:39:49.267Z,16.60
2023-04-16T11:50:23.476Z,16.50
2023-04-16T12:00:46.919Z,16.80
2023-04-16T12:11:10.017Z,17.00
2023-04-16T12:21:42.572Z,17.10
2023-04-16T12:32:07.924Z,17.00
2023-04-16T12:42:35.594Z,16.70
2023-04-16T12:52:59.114Z,16.50
2023-04-16T13:03:24.406Z,16.50
2023-04-16T13:13:50.600Z,16.40
2023-04-16T13:24:12.151Z,16.00
2023-04-16T13:34:35.855Z,15.90
2023-04-16T13:44:58.270Z,15.90
2023-04-16T13:55:21.742Z,16.00
2023-04-16T14:05:47.033Z,16.10
2023-04-16T14:16:10.779Z,16.30
2023-04-16T14:26:32.841Z,16.20
2023-04-16T14:36:56.092Z,16.60
2023-04-16T14:47:18.363Z,16.60
2023-04-16T14:57:42.009Z,16.50
2023-04-16T15:08:03.876Z,16.50
2023-04-16T15:18:27.185Z,16.10
2023-04-16T15:28:50.652Z,16.00
2023-04-16T15:39:14.057Z,15.90
2023-04-16T15:49:36.354Z,16.00
2023-04-16T16:00:07.077Z,15.90
2023-04-16T16:10:29.290Z,16.00
2023-04-16T16:20:58.153Z,16.00
2023-04-16T16:31:20.207Z,15.80
2023-04-16T16:41:43.409Z,15.90
2023-04-16T16:52:07.368Z,15.80
2023-04-16T17:02:34.789Z,15.70
2023-04-16T17:12:56.513Z,15.70
2023-04-16T17:23:26.639Z,15.50
2023-04-16T17:33:48.345Z,15.40
2023-04-16T17:44:12.077Z,15.20
2023-04-16T17:54:34.730Z,15.10
2023-04-16T18:05:00.165Z,15.00
2023-04-16T18:15:23.217Z,15.00
2023-04-16T18:25:48.778Z,15.00
2023-04-16T18:36:11.751Z,14.90
2023-04-16T18:46:34.958Z,14.80
2023-04-16T18:56:57.069Z,14.70
2023-04-16T19:07:21.496Z,14.70
2023-04-16T19:17:42.986Z,14.70
2023-04-16T19:28:06.879Z,14.70
2023-04-16T19:38:28.631Z,14.60
2023-04-16T19:48:51.685Z,14.60
2023-04-16T19:59:13.147Z,14.60
2023-04-16T20:09:36.324Z,14.60
2023-04-16T20:20:00.882Z,14.50
2023-04-16T20:30:28.783Z,14.60
2023-04-16T20:41:06.268Z,14.40
2023-04-16T20:51:29.447Z,14.40
2023-04-16T21:01:52.037Z,14.20
2023-04-16T21:12:14.990Z,14.10
2023-04-16T21:22:36.804Z,14.10
2023-04-16T21:32:59.829Z,14.00
2023-04-16T21:43:21.577Z,13.90
2023-04-16T21:53:44.384Z,13.80
2023-04-16T22:04:07.464Z,13.80
2023-04-16T22:14:31.839Z,13.80
2023-04-16T22:24:53.732Z,13.70
2023-04-16T22:35:16.807Z,13.70
2023-04-16T22:45:38.133Z,13.70
2023-04-16T22:56:01.328Z,13.70
2023-04-16T23:06:23.904Z,13.60
2023-04-16T23:16:46.660Z,13.60
2023-04-16T23:27:08.024Z,13.60
2023-04-16T23:37:31.697Z,13.50
2023-04-16T23:47:53.283Z,13.50
2023-04-16T23:58:16.158Z,13.40
